createdAt,value
2018-07-05T07:38:15.603Z,60.33
2018-07-05T07:43:13.040Z,59.41
2018-07-05T07:48:11.793Z,59.43
2018-07-05T07:53:09.699Z,58.41
2018-07-05T07:58:10.525Z,58.02
2018-07-05T08:03:09.270Z,58.21
2018-07-05T08:08:08.118Z,57.54
2018-07-05T08:13:07.818Z,57.55
2018-07-05T08:18:00.592Z,55.98
2018-07-05T08:22:54.389Z,55.85
2018-07-05T08:27:50.713Z,55.77
2018-07-05T08:32:49.037Z,56.48
2018-07-05T08:37:47.410Z,55.91
2018-07-05T08:42:45.012Z,56.38
2018-07-05T08:47:42.367Z,55.82
2018-07-05T08:52:41.072Z,56.20
2018-07-05T08:57:39.516Z,55.21
2018-07-05T09:02:38.088Z,54.85
2018-07-05T09:07:36.284Z,55.54
2018-07-05T09:12:34.885Z,55.64
2018-07-05T09:17:32.184Z,58.23
2018-07-05T09:22:30.521Z,57.84
2018-07-05T09:27:28.201Z,59.16
2018-07-05T09:32:25.732Z,60.22
2018-07-05T09:37:23.239Z,58.69
2018-07-05T09:42:21.637Z,58.29
2018-07-05T09:47:20.987Z,58.15
2018-07-05T09:52:18.596Z,58.47
2018-07-05T09:57:17.928Z,57.63
2018-07-05T10:02:15.232Z,58.30
2018-07-05T10:07:12.392Z,58.78
2018-07-05T10:12:09.886Z,58.89
2018-07-05T10:17:07.431Z,58.79
2018-07-05T10:22:05.284Z,59.10
2018-07-05T10:27:02.714Z,58.01
2018-07-05T10:32:16.074Z,56.81
2018-07-05T10:37:19.961Z,59.88
2018-07-05T10:42:33.257Z,60.66
2018-07-05T10:47:48.497Z,61.13
2018-07-05T12:45:44.192Z,58.15
2018-07-05T12:50:58.448Z,57.59
2018-07-05T12:56:11.898Z,56.69
2018-07-05T13:01:25.192Z,57.07
2018-07-05T13:06:39.165Z,55.14
2018-07-05T13:11:53.223Z,55.45
2018-07-05T13:17:07.638Z,53.49
2018-07-05T13:22:19.777Z,51.70
2018-07-05T13:27:33.871Z,51.89
2018-07-05T13:32:46.534Z,49.93
2018-07-05T13:38:01.515Z,51.54
2018-07-05T13:43:14.981Z,52.70
2018-07-05T13:48:29.050Z,53.58
2018-07-05T13:53:43.349Z,52.41
2018-07-05T13:58:50.995Z,52.49
2018-07-05T14:04:04.276Z,51.79
2018-07-05T14:09:18.697Z,53.01
2018-07-05T14:14:32.009Z,51.47
2018-07-05T14:19:50.758Z,53.23
2018-07-05T14:25:05.168Z,52.73
2018-07-05T14:30:18.465Z,51.96
2018-07-05T14:35:32.533Z,51.40
2018-07-05T14:40:46.702Z,50.60
2018-07-05T14:45:59.792Z,51.98
2018-07-05T14:51:13.059Z,53.44
2018-07-05T14:56:26.214Z,51.63
2018-07-05T15:01:39.487Z,51.97
2018-07-05T15:06:52.943Z,53.58
2018-07-05T15:12:06.549Z,53.22
2018-07-05T15:17:24.827Z,52.41
2018-07-05T15:22:38.571Z,51.94
2018-07-05T15:27:53.002Z,53.11
2018-07-05T15:33:07.210Z,52.68
2018-07-05T15:38:20.533Z,51.89
2018-07-05T15:43:33.919Z,52.18
2018-07-05T15:48:48.396Z,52.72
2018-07-05T15:54:01.685Z,52.80
2018-07-05T15:59:16.035Z,53.59
2018-07-05T16:04:28.961Z,52.98
2018-07-05T16:09:43.300Z,52.33
2018-07-05T16:14:57.359Z,53.45
2018-07-05T16:20:11.453Z,54.27
2018-07-05T16:25:25.764Z,53.96
2018-07-05T16:30:40.096Z,54.86
2018-07-05T16:35:58.112Z,54.41
2018-07-05T16:41:12.310Z,53.75
2018-07-05T16:46:26.448Z,52.89
2018-07-05T16:51:39.745Z,52.51
2018-07-05T16:56:54.428Z,51.62
2018-07-05T17:02:07.664Z,51.95
2018-07-05T17:07:21.767Z,51.94
2018-07-05T17:12:36.067Z,52.55
2018-07-05T17:17:50.094Z,52.76
2018-07-05T17:23:04.216Z,53.30
2018-07-05T17:28:18.536Z,53.83
2018-07-05T17:33:32.827Z,53.97
2018-07-05T17:38:46.940Z,54.24
2018-07-05T17:44:01.210Z,54.14
2018-07-05T17:49:15.288Z,53.77
2018-07-05T17:54:29.582Z,55.17
2018-07-05T17:59:45.753Z,55.99
2018-07-05T18:04:59.120Z,56.65
2018-07-05T18:10:13.196Z,57.29
2018-07-05T18:15:27.713Z,58.31
2018-07-05T18:20:43.964Z,58.51
2018-07-05T18:25:57.201Z,59.70
2018-07-05T18:31:10.695Z,61.46
2018-07-05T18:36:25.085Z,61.14
2018-07-05T18:41:33.428Z,61.43
2018-07-05T18:46:47.807Z,61.82
2018-07-05T18:52:01.315Z,62.19
2018-07-05T18:57:18.328Z,61.84
2018-07-05T19:02:32.413Z,62.00
2018-07-05T19:07:46.518Z,62.52
2018-07-05T19:13:00.114Z,65.68
2018-07-05T19:18:14.436Z,66.49
2018-07-05T19:23:29.424Z,70.58
2018-07-05T19:28:43.555Z,70.77
2018-07-05T19:33:57.628Z,74.11
2018-07-05T19:39:11.917Z,71.73
2018-07-05T19:44:26.972Z,70.75
2018-07-05T19:49:41.120Z,72.49
2018-07-05T19:54:57.598Z,73.60
2018-07-05T20:00:11.974Z,77.09
2018-07-05T20:05:26.291Z,78.36
2018-07-05T20:10:40.325Z,78.50
2018-07-05T20:15:53.553Z,79.34
2018-07-05T20:21:07.747Z,81.44
2018-07-05T20:26:21.943Z,80.84
2018-07-05T20:31:35.064Z,82.51
2018-07-05T20:36:49.119Z,82.79
2018-07-05T20:42:03.298Z,82.81
2018-07-05T20:47:20.461Z,81.38
2018-07-05T20:52:33.561Z,82.21
2018-07-05T20:57:47.779Z,81.05
2018-07-05T21:03:01.843Z,80.04
2018-07-05T21:08:16.054Z,79.25
2018-07-05T21:13:30.443Z,78.08
2018-07-05T21:18:44.604Z,77.91
2018-07-05T21:23:58.625Z,77.92
2018-07-05T21:29:11.694Z,79.31
2018-07-05T21:34:24.954Z,78.45
2018-07-05T21:39:38.342Z,78.91
2018-07-05T21:44:51.539Z,79.72
2018-07-05T21:50:05.692Z,77.60
2018-07-05T21:55:20.007Z,78.83
2018-07-05T22:00:34.108Z,78.62
2018-07-05T22:05:48.317Z,77.83
2018-07-05T22:11:02.878Z,78.63
2018-07-05T22:16:16.269Z,78.45
2018-07-05T22:21:29.662Z,78.69
2018-07-05T22:26:41.960Z,78.50
2018-07-05T22:31:57.339Z,78.61
2018-07-05T22:37:10.372Z,79.03
2018-07-05T22:42:24.637Z,78.64
2018-07-05T22:47:37.800Z,78.58
2018-07-05T22:52:51.968Z,77.94
2018-07-05T22:58:06.128Z,77.46
2018-07-05T23:03:19.345Z,78.75
2018-07-05T23:08:32.633Z,79.25
2018-07-05T23:13:46.759Z,80.41
2018-07-05T23:18:59.991Z,80.79
2018-07-05T23:24:12.153Z,81.02
2018-07-05T23:29:25.390Z,81.60
2018-07-05T23:34:39.416Z,80.95
2018-07-05T23:39:53.487Z,80.85
2018-07-05T23:45:07.664Z,80.76
2018-07-05T23:50:21.542Z,80.45
2018-07-05T23:55:37.169Z,80.45
